sensor_id;sensor_type;location;lat;lon;timestamp;temperature;humidity
23801;DHT22;12081;48.614;10.226;2022-09-09T00:02:28;10.50;99.90
23801;DHT22;12081;48.614;10.226;2022-09-09T00:05:20;10.50;99.90
23801;DHT22;12081;48.614;10.226;2022-09-09T00:08:18;10.40;99.90
23801;DHT22;12081;48.614;10.226;2022-09-09T00:11:04;11.10;99.90
23801;DHT22;12081;48.614;10.226;2022-09-09T00:13:52;10.60;99.90
23801;DHT22;12081;48.614;10.226;2022-09-09T00:16:41;10.30;99.90
23801;DHT22;12081;48.614;10.226;2022-09-09T00:22:30;10.00;99.90
23801;DHT22;12081;48.614;10.226;2022-09-09T00:25:23;10.00;99.90
23801;DHT22;12081;48.614;10.226;2022-09-09T00:28:18;10.60;99.90
23801;DHT22;12081;48.614;10.226;2022-09-09T00:31:16;10.00;99.90
23801;DHT22;12081;48.614;10.226;2022-09-09T00:34:18;9.90;99.90
23801;DHT22;12081;48.614;10.226;2022-09-09T00:37:05;10.40;99.90
23801;DHT22;12081;48.614;10.226;2022-09-09T00:39:49;10.00;99.90
23801;DHT22;12081;48.614;10.226;2022-09-09T00:42:41;10.00;99.90
23801;DHT22;12081;48.614;10.226;2022-09-09T05:34:51;10.70;99.90
23801;DHT22;12081;48.614;10.226;2022-09-09T05:37:36;10.80;99.90
23801;DHT22;12081;48.614;10.226;2022-09-09T05:40:20;10.80;99.90
23801;DHT22;12081;48.614;10.226;2022-09-09T05:43:05;10.80;99.90
23801;DHT22;12081;48.614;10.226;2022-09-09T05:46:08;10.90;99.90
23801;DHT22;12081;48.614;10.226;2022-09-09T05:48:53;10.90;99.90
23801;DHT22;12081;48.614;10.226;2022-09-09T05:51:37;11.00;99.90
23801;DHT22;12081;48.614;10.226;2022-09-09T05:54:22;11.00;99.90
23801;DHT22;12081;48.614;10.226;2022-09-09T05:57:07;11.00;99.90
23801;DHT22;12081;48.614;10.226;2022-09-09T05:59:51;11.00;99.90
23801;DHT22;12081;48.614;10.226;2022-09-09T06:02:35;11.20;99.90
23801;DHT22;12081;48.614;10.226;2022-09-09T06:05:21;11.10;99.90
23801;DHT22;12081;48.614;10.226;2022-09-09T06:08:06;11.20;99.90
23801;DHT22;12081;48.614;10.226;2022-09-09T06:10:51;11.30;99.90
23801;DHT22;12081;48.614;10.226;2022-09-09T06:13:36;11.40;99.90
23801;DHT22;12081;48.614;10.226;2022-09-09T06:16:25;11.60;99.90
23801;DHT22;12081;48.614;10.226;2022-09-09T06:19:10;11.70;99.90
23801;DHT22;12081;48.614;10.226;2022-09-09T06:21:56;11.80;99.90
23801;DHT22;12081;48.614;10.226;2022-09-09T06:24:40;11.90;99.90
23801;DHT22;12081;48.614;10.226;2022-09-09T06:27:24;12.10;99.90
23801;DHT22;12081;48.614;10.226;2022-09-09T06:30:08;12.20;99.90
23801;DHT22;12081;48.614;10.226;2022-09-09T06:32:55;12.30;99.90
23801;DHT22;12081;48.614;10.226;2022-09-09T06:35:39;12.40;99.90
23801;DHT22;12081;48.614;10.226;2022-09-09T06:38:23;12.50;99.90
23801;DHT22;12081;48.614;10.226;2022-09-09T06:41:08;12.60;99.90
23801;DHT22;12081;48.614;10.226;2022-09-09T06:43:53;12.70;99.90
23801;DHT22;12081;48.614;10.226;2022-09-09T06:46:39;12.70;99.90
23801;DHT22;12081;48.614;10.226;2022-09-09T06:49:23;12.80;99.90
23801;DHT22;12081;48.614;10.226;2022-09-09T06:52:08;12.80;99.90
23801;DHT22;12081;48.614;10.226;2022-09-09T06:54:53;13.10;99.90
23801;DHT22;12081;48.614;10.226;2022-09-09T06:57:37;13.00;99.90
23801;DHT22;12081;48.614;10.226;2022-09-09T07:00:22;13.40;99.90
23801;DHT22;12081;48.614;10.226;2022-09-09T07:03:06;14.10;99.90
23801;DHT22;12081;48.614;10.226;2022-09-09T07:05:54;14.90;99.90
23801;DHT22;12081;48.614;10.226;2022-09-09T07:08:40;15.50;99.90
23801;DHT22;12081;48.614;10.226;2022-09-09T07:11:27;16.00;99.90
23801;DHT22;12081;48.614;10.226;2022-09-09T07:14:13;16.20;99.90
23801;DHT22;12081;48.614;10.226;2022-09-09T07:16:57;16.50;99.90
23801;DHT22;12081;48.614;10.226;2022-09-09T07:19:41;16.70;99.90
23801;DHT22;12081;48.614;10.226;2022-09-09T07:22:27;17.40;99.90
23801;DHT22;12081;48.614;10.226;2022-09-09T07:25:12;18.50;99.90
23801;DHT22;12081;48.614;10.226;2022-09-09T07:27:58;20.00;99.90
23801;DHT22;12081;48.614;10.226;2022-09-09T07:30:42;21.40;99.90
23801;DHT22;12081;48.614;10.226;2022-09-09T07:33:27;22.40;99.90
23801;DHT22;12081;48.614;10.226;2022-09-09T07:36:29;22.30;99.90
23801;DHT22;12081;48.614;10.226;2022-09-09T07:39:14;22.70;99.90
23801;DHT22;12081;48.614;10.226;2022-09-09T07:41:59;23.70;99.70
23801;DHT22;12081;48.614;10.226;2022-09-09T07:44:43;24.40;97.50
23801;DHT22;12081;48.614;10.226;2022-09-09T07:47:27;24.60;96.80
23801;DHT22;12081;48.614;10.226;2022-09-09T07:50:11;25.00;94.40
23801;DHT22;12081;48.614;10.226;2022-09-09T07:52:55;25.90;90.40
23801;DHT22;12081;48.614;10.226;2022-09-09T07:55:39;25.50;88.10
23801;DHT22;12081;48.614;10.226;2022-09-09T07:58:24;25.40;89.80
23801;DHT22;12081;48.614;10.226;2022-09-09T08:01:17;25.30;89.80
23801;DHT22;12081;48.614;10.226;2022-09-09T08:04:04;26.90;90.30
23801;DHT22;12081;48.614;10.226;2022-09-09T08:06:51;26.00;85.40
23801;DHT22;12081;48.614;10.226;2022-09-09T08:09:36;26.40;83.10
23801;DHT22;12081;48.614;10.226;2022-09-09T08:12:21;26.70;81.20
23801;DHT22;12081;48.614;10.226;2022-09-09T08:15:06;26.20;78.60
23801;DHT22;12081;48.614;10.226;2022-09-09T08:17:50;24.50;83.50
23801;DHT22;12081;48.614;10.226;2022-09-09T08:20:36;24.50;88.40
23801;DHT22;12081;48.614;10.226;2022-09-09T08:23:21;24.20;89.60
23801;DHT22;12081;48.614;10.226;2022-09-09T08:26:10;25.80;90.50
23801;DHT22;12081;48.614;10.226;2022-09-09T08:28:56;25.70;84.70
23801;DHT22;12081;48.614;10.226;2022-09-09T08:31:46;26.60;79.70
23801;DHT22;12081;48.614;10.226;2022-09-09T08:34:31;27.20;80.30
23801;DHT22;12081;48.614;10.226;2022-09-09T08:37:16;28.10;78.20
23801;DHT22;12081;48.614;10.226;2022-09-09T08:40:00;27.40;76.20
23801;DHT22;12081;48.614;10.226;2022-09-09T08:42:50;26.90;76.30
23801;DHT22;12081;48.614;10.226;2022-09-09T08:45:57;26.00;78.60
23801;DHT22;12081;48.614;10.226;2022-09-09T08:49:11;25.70;82.60
23801;DHT22;12081;48.614;10.226;2022-09-09T08:51:58;26.00;82.40
23801;DHT22;12081;48.614;10.226;2022-09-09T08:54:43;26.80;79.80
23801;DHT22;12081;48.614;10.226;2022-09-09T08:57:28;27.50;79.30
23801;DHT22;12081;48.614;10.226;2022-09-09T09:00:13;27.70;74.00
23801;DHT22;12081;48.614;10.226;2022-09-09T09:03:23;28.30;71.20
23801;DHT22;12081;48.614;10.226;2022-09-09T09:09:54;30.70;63.90
23801;DHT22;12081;48.614;10.226;2022-09-09T09:12:44;31.60;61.00
23801;DHT22;12081;48.614;10.226;2022-09-09T09:15:37;32.70;58.20
23801;DHT22;12081;48.614;10.226;2022-09-09T09:18:22;32.60;56.70
23801;DHT22;12081;48.614;10.226;2022-09-09T09:21:17;31.60;55.30
23801;DHT22;12081;48.614;10.226;2022-09-09T09:24:07;30.00;58.30
23801;DHT22;12081;48.614;10.226;2022-09-09T09:27:08;28.40;60.90
23801;DHT22;12081;48.614;10.226;2022-09-09T09:29:56;27.20;63.40
23801;DHT22;12081;48.614;10.226;2022-09-09T09:32:49;26.80;64.80
23801;DHT22;12081;48.614;10.226;2022-09-09T09:35:35;25.80;65.40
23801;DHT22;12081;48.614;10.226;2022-09-09T09:38:24;25.10;67.30
23801;DHT22;12081;48.614;10.226;2022-09-09T09:41:09;24.20;70.70
23801;DHT22;12081;48.614;10.226;2022-09-09T09:43:54;23.20;74.40
23801;DHT22;12081;48.614;10.226;2022-09-09T09:46:38;23.10;79.30
23801;DHT22;12081;48.614;10.226;2022-09-09T09:49:22;24.60;76.70
23801;DHT22;12081;48.614;10.226;2022-09-09T09:52:12;26.50;69.50
23801;DHT22;12081;48.614;10.226;2022-09-09T09:55:04;28.40;62.70
23801;DHT22;12081;48.614;10.226;2022-09-09T09:57:51;30.20;58.40
23801;DHT22;12081;48.614;10.226;2022-09-09T10:00:50;29.70;55.90
23801;DHT22;12081;48.614;10.226;2022-09-09T10:03:35;27.60;58.50
23801;DHT22;12081;48.614;10.226;2022-09-09T10:06:35;25.80;64.20
23801;DHT22;12081;48.614;10.226;2022-09-09T10:09:29;24.50;68.20
23801;DHT22;12081;48.614;10.226;2022-09-09T10:18:38;22.70;78.70
23801;DHT22;12081;48.614;10.226;2022-09-09T10:25:04;25.80;71.10
23801;DHT22;12081;48.614;10.226;2022-09-09T10:31:27;30.20;60.10
23801;DHT22;12081;48.614;10.226;2022-09-09T10:34:36;31.10;54.40
23801;DHT22;12081;48.614;10.226;2022-09-09T10:43:43;28.90;59.70
23801;DHT22;12081;48.614;10.226;2022-09-09T10:46:46;27.80;62.80
23801;DHT22;12081;48.614;10.226;2022-09-09T10:55:45;26.80;67.60
23801;DHT22;12081;48.614;10.226;2022-09-09T10:59:12;27.40;58.30
23801;DHT22;12081;48.614;10.226;2022-09-09T11:01:51;28.40;55.10
23801;DHT22;12081;48.614;10.226;2022-09-09T11:04:50;28.40;53.90
23801;DHT22;12081;48.614;10.226;2022-09-09T11:13:19;29.80;50.60
23801;DHT22;12081;48.614;10.226;2022-09-09T11:16:56;30.20;47.70
23801;DHT22;12081;48.614;10.226;2022-09-09T11:19:30;30.90;47.90
23801;DHT22;12081;48.614;10.226;2022-09-09T11:22:30;30.90;48.10
23801;DHT22;12081;48.614;10.226;2022-09-09T11:25:41;30.50;46.40
23801;DHT22;12081;48.614;10.226;2022-09-09T11:28:56;29.00;48.20
23801;DHT22;12081;48.614;10.226;2022-09-09T11:35:19;26.90;52.40
23801;DHT22;12081;48.614;10.226;2022-09-09T11:38:16;27.10;53.30
23801;DHT22;12081;48.614;10.226;2022-09-09T11:41:09;27.00;53.10
23801;DHT22;12081;48.614;10.226;2022-09-09T11:43:54;26.50;53.20
23801;DHT22;12081;48.614;10.226;2022-09-09T11:46:39;26.80;54.00
23801;DHT22;12081;48.614;10.226;2022-09-09T11:49:39;27.80;52.50
23801;DHT22;12081;48.614;10.226;2022-09-09T11:52:37;28.90;50.30
23801;DHT22;12081;48.614;10.226;2022-09-09T11:55:30;29.40;49.10
23801;DHT22;12081;48.614;10.226;2022-09-09T11:58:17;29.70;50.10
23801;DHT22;12081;48.614;10.226;2022-09-09T12:01:13;29.80;48.10
23801;DHT22;12081;48.614;10.226;2022-09-09T12:04:26;29.70;49.20
23801;DHT22;12081;48.614;10.226;2022-09-09T12:07:33;28.80;49.80
23801;DHT22;12081;48.614;10.226;2022-09-09T12:10:25;27.70;51.60
23801;DHT22;12081;48.614;10.226;2022-09-09T12:13:21;27.00;51.80
23801;DHT22;12081;48.614;10.226;2022-09-09T12:16:28;27.00;52.70
23801;DHT22;12081;48.614;10.226;2022-09-09T12:19:20;28.80;50.20
23801;DHT22;12081;48.614;10.226;2022-09-09T12:28:11;30.30;46.70
23801;DHT22;12081;48.614;10.226;2022-09-09T12:31:06;30.20;47.30
23801;DHT22;12081;48.614;10.226;2022-09-09T12:33:52;30.80;46.00
23801;DHT22;12081;48.614;10.226;2022-09-09T12:36:37;31.10;46.30
23801;DHT22;12081;48.614;10.226;2022-09-09T12:39:38;31.70;45.50
23801;DHT22;12081;48.614;10.226;2022-09-09T12:42:24;32.00;44.00
23801;DHT22;12081;48.614;10.226;2022-09-09T12:45:17;30.30;44.50
23801;DHT22;12081;48.614;10.226;2022-09-09T12:48:07;27.80;46.50
23801;DHT22;12081;48.614;10.226;2022-09-09T12:50:53;26.40;49.40
23801;DHT22;12081;48.614;10.226;2022-09-09T12:53:39;25.30;52.00
23801;DHT22;12081;48.614;10.226;2022-09-09T12:56:31;24.60;52.90
23801;DHT22;12081;48.614;10.226;2022-09-09T12:59:27;23.90;54.30
23801;DHT22;12081;48.614;10.226;2022-09-09T13:02:21;23.20;56.40
23801;DHT22;12081;48.614;10.226;2022-09-09T13:05:17;22.60;53.90
23801;DHT22;12081;48.614;10.226;2022-09-09T13:08:07;23.00;56.40
23801;DHT22;12081;48.614;10.226;2022-09-09T13:11:06;23.60;57.30
23801;DHT22;12081;48.614;10.226;2022-09-09T13:13:56;23.90;56.60
23801;DHT22;12081;48.614;10.226;2022-09-09T13:16:41;24.10;54.20
23801;DHT22;12081;48.614;10.226;2022-09-09T13:19:25;24.60;54.30
23801;DHT22;12081;48.614;10.226;2022-09-09T13:22:35;25.00;53.30
23801;DHT22;12081;48.614;10.226;2022-09-09T13:25:26;25.50;52.30
23801;DHT22;12081;48.614;10.226;2022-09-09T13:28:22;25.30;50.10
23801;DHT22;12081;48.614;10.226;2022-09-09T13:31:24;24.70;50.60
23801;DHT22;12081;48.614;10.226;2022-09-09T13:34:27;23.90;53.70
23801;DHT22;12081;48.614;10.226;2022-09-09T13:37:41;23.30;58.30
23801;DHT22;12081;48.614;10.226;2022-09-09T13:40:26;23.10;60.00
23801;DHT22;12081;48.614;10.226;2022-09-09T13:43:18;22.60;61.00
23801;DHT22;12081;48.614;10.226;2022-09-09T13:46:22;23.60;62.00
23801;DHT22;12081;48.614;10.226;2022-09-09T13:52:15;25.00;60.00
23801;DHT22;12081;48.614;10.226;2022-09-09T13:55:00;24.40;59.70
23801;DHT22;12081;48.614;10.226;2022-09-09T13:58:14;24.40;60.00
23801;DHT22;12081;48.614;10.226;2022-09-09T14:00:59;24.10;58.40
23801;DHT22;12081;48.614;10.226;2022-09-09T14:03:43;25.40;56.90
23801;DHT22;12081;48.614;10.226;2022-09-09T14:06:27;24.90;54.60
23801;DHT22;12081;48.614;10.226;2022-09-09T14:09:14;24.70;54.80
23801;DHT22;12081;48.614;10.226;2022-09-09T14:11:59;26.00;55.70
23801;DHT22;12081;48.614;10.226;2022-09-09T14:14:44;24.30;55.80
23801;DHT22;12081;48.614;10.226;2022-09-09T14:17:29;24.20;56.60
23801;DHT22;12081;48.614;10.226;2022-09-09T14:20:14;24.50;57.20
23801;DHT22;12081;48.614;10.226;2022-09-09T14:23:01;22.90;57.60
23801;DHT22;12081;48.614;10.226;2022-09-09T14:25:45;22.60;58.60
23801;DHT22;12081;48.614;10.226;2022-09-09T14:28:30;22.50;60.30
23801;DHT22;12081;48.614;10.226;2022-09-09T14:31:14;22.70;59.90
23801;DHT22;12081;48.614;10.226;2022-09-09T14:34:00;22.60;59.50
23801;DHT22;12081;48.614;10.226;2022-09-09T14:36:44;22.20;60.60
23801;DHT22;12081;48.614;10.226;2022-09-09T14:39:29;23.30;60.70
23801;DHT22;12081;48.614;10.226;2022-09-09T14:42:16;21.90;60.40
23801;DHT22;12081;48.614;10.226;2022-09-09T14:45:04;21.60;62.20
23801;DHT22;12081;48.614;10.226;2022-09-09T14:47:49;21.50;62.10
23801;DHT22;12081;48.614;10.226;2022-09-09T14:50:34;22.60;63.40
23801;DHT22;12081;48.614;10.226;2022-09-09T14:53:20;23.00;62.40
23801;DHT22;12081;48.614;10.226;2022-09-09T14:56:16;22.60;60.90
23801;DHT22;12081;48.614;10.226;2022-09-09T14:59:01;23.80;61.00
23801;DHT22;12081;48.614;10.226;2022-09-09T15:01:46;22.80;59.50
23801;DHT22;12081;48.614;10.226;2022-09-09T15:04:30;22.70;60.60
23801;DHT22;12081;48.614;10.226;2022-09-09T15:07:16;23.50;61.60
23801;DHT22;12081;48.614;10.226;2022-09-09T15:10:03;23.30;63.10
23801;DHT22;12081;48.614;10.226;2022-09-09T15:12:48;21.70;63.20
23801;DHT22;12081;48.614;10.226;2022-09-09T15:15:33;21.60;64.90
23801;DHT22;12081;48.614;10.226;2022-09-09T15:18:18;21.80;64.60
23801;DHT22;12081;48.614;10.226;2022-09-09T15:21:03;22.00;62.70
23801;DHT22;12081;48.614;10.226;2022-09-09T15:23:49;22.20;64.20
23801;DHT22;12081;48.614;10.226;2022-09-09T15:26:33;22.30;62.50
23801;DHT22;12081;48.614;10.226;2022-09-09T15:29:17;22.10;62.40
23801;DHT22;12081;48.614;10.226;2022-09-09T15:32:02;22.20;63.50
23801;DHT22;12081;48.614;10.226;2022-09-09T15:34:46;22.00;63.90
23801;DHT22;12081;48.614;10.226;2022-09-09T15:37:31;21.90;63.90
23801;DHT22;12081;48.614;10.226;2022-09-09T15:40:15;21.90;64.20
23801;DHT22;12081;48.614;10.226;2022-09-09T15:42:59;21.50;65.70
23801;DHT22;12081;48.614;10.226;2022-09-09T15:45:46;21.30;66.10
23801;DHT22;12081;48.614;10.226;2022-09-09T15:48:32;21.30;66.80
23801;DHT22;12081;48.614;10.226;2022-09-09T15:51:16;21.00;67.00
23801;DHT22;12081;48.614;10.226;2022-09-09T15:54:01;20.90;67.30
23801;DHT22;12081;48.614;10.226;2022-09-09T15:56:47;20.80;68.40
23801;DHT22;12081;48.614;10.226;2022-09-09T15:59:34;20.80;69.60
23801;DHT22;12081;48.614;10.226;2022-09-09T16:02:18;20.80;68.60
23801;DHT22;12081;48.614;10.226;2022-09-09T16:05:02;20.90;69.10
23801;DHT22;12081;48.614;10.226;2022-09-09T16:07:46;21.10;69.90
23801;DHT22;12081;48.614;10.226;2022-09-09T16:10:31;21.40;68.20
23801;DHT22;12081;48.614;10.226;2022-09-09T16:13:15;21.60;66.40
23801;DHT22;12081;48.614;10.226;2022-09-09T16:15:59;21.60;65.50
23801;DHT22;12081;48.614;10.226;2022-09-09T16:18:46;21.60;63.10
23801;DHT22;12081;48.614;10.226;2022-09-09T16:21:33;22.20;64.30
23801;DHT22;12081;48.614;10.226;2022-09-09T16:24:19;21.60;65.80
23801;DHT22;12081;48.614;10.226;2022-09-09T16:27:04;21.60;65.20
23801;DHT22;12081;48.614;10.226;2022-09-09T16:29:48;21.50;65.90
23801;DHT22;12081;48.614;10.226;2022-09-09T16:32:33;21.50;66.10
23801;DHT22;12081;48.614;10.226;2022-09-09T16:35:18;21.40;66.70
23801;DHT22;12081;48.614;10.226;2022-09-09T16:38:04;22.10;66.80
23801;DHT22;12081;48.614;10.226;2022-09-09T16:40:48;20.70;67.80
23801;DHT22;12081;48.614;10.226;2022-09-09T16:43:34;20.40;68.50
23801;DHT22;12081;48.614;10.226;2022-09-09T16:46:20;20.10;70.70
23801;DHT22;12081;48.614;10.226;2022-09-09T16:49:07;21.40;74.00
23801;DHT22;12081;48.614;10.226;2022-09-09T16:51:51;19.60;74.30
23801;DHT22;12081;48.614;10.226;2022-09-09T16:54:37;19.40;74.10
23801;DHT22;12081;48.614;10.226;2022-09-09T16:57:21;19.20;74.20
23801;DHT22;12081;48.614;10.226;2022-09-09T17:00:06;19.00;75.90
23801;DHT22;12081;48.614;10.226;2022-09-09T17:02:51;18.90;77.60
23801;DHT22;12081;48.614;10.226;2022-09-09T17:05:39;18.70;80.10
23801;DHT22;12081;48.614;10.226;2022-09-09T17:08:25;18.60;84.00
23801;DHT22;12081;48.614;10.226;2022-09-09T17:11:14;18.40;88.00
23801;DHT22;12081;48.614;10.226;2022-09-09T17:13:59;18.30;90.10
23801;DHT22;12081;48.614;10.226;2022-09-09T17:16:44;18.10;91.80
23801;DHT22;12081;48.614;10.226;2022-09-09T17:19:29;17.90;93.40
23801;DHT22;12081;48.614;10.226;2022-09-09T17:22:13;18.20;94.90
23801;DHT22;12081;48.614;10.226;2022-09-09T17:24:57;17.70;95.40
23801;DHT22;12081;48.614;10.226;2022-09-09T17:27:41;18.10;96.90
23801;DHT22;12081;48.614;10.226;2022-09-09T17:30:26;17.60;98.20
23801;DHT22;12081;48.614;10.226;2022-09-09T17:33:11;17.60;99.10
23801;DHT22;12081;48.614;10.226;2022-09-09T17:36:08;17.60;98.40
23801;DHT22;12081;48.614;10.226;2022-09-09T17:38:53;17.60;99.00
23801;DHT22;12081;48.614;10.226;2022-09-09T17:41:39;17.60;99.90
23801;DHT22;12081;48.614;10.226;2022-09-09T17:44:23;17.90;99.90
23801;DHT22;12081;48.614;10.226;2022-09-09T17:47:07;17.30;99.90
23801;DHT22;12081;48.614;10.226;2022-09-09T17:49:51;17.10;99.90
23801;DHT22;12081;48.614;10.226;2022-09-09T17:52:35;16.90;99.90
23801;DHT22;12081;48.614;10.226;2022-09-09T17:55:21;17.00;99.90
23801;DHT22;12081;48.614;10.226;2022-09-09T17:58:05;16.60;99.90
23801;DHT22;12081;48.614;10.226;2022-09-09T18:00:49;16.40;99.90
23801;DHT22;12081;48.614;10.226;2022-09-09T18:03:35;16.20;99.90
23801;DHT22;12081;48.614;10.226;2022-09-09T18:06:21;16.70;99.90
23801;DHT22;12081;48.614;10.226;2022-09-09T18:09:09;15.80;99.90
23801;DHT22;12081;48.614;10.226;2022-09-09T18:11:56;15.60;99.90
23801;DHT22;12081;48.614;10.226;2022-09-09T18:14:40;15.70;99.90
23801;DHT22;12081;48.614;10.226;2022-09-09T18:17:24;15.40;99.90
23801;DHT22;12081;48.614;10.226;2022-09-09T18:20:10;15.40;99.90
23801;DHT22;12081;48.614;10.226;2022-09-09T18:22:54;15.30;99.90
23801;DHT22;12081;48.614;10.226;2022-09-09T18:25:39;15.30;99.90
23801;DHT22;12081;48.614;10.226;2022-09-09T18:28:25;15.20;99.90
23801;DHT22;12081;48.614;10.226;2022-09-09T18:31:12;15.20;99.90
23801;DHT22;12081;48.614;10.226;2022-09-09T18:33:59;14.90;99.90
23801;DHT22;12081;48.614;10.226;2022-09-09T18:36:46;14.80;99.90
23801;DHT22;12081;48.614;10.226;2022-09-09T18:39:31;14.80;99.90
23801;DHT22;12081;48.614;10.226;2022-09-09T18:42:15;14.70;99.90
23801;DHT22;12081;48.614;10.226;2022-09-09T18:44:59;14.70;99.90
23801;DHT22;12081;48.614;10.226;2022-09-09T18:47:43;14.60;99.90
23801;DHT22;12081;48.614;10.226;2022-09-09T18:50:27;14.80;99.90
23801;DHT22;12081;48.614;10.226;2022-09-09T18:53:11;14.50;99.90
23801;DHT22;12081;48.614;10.226;2022-09-09T18:56:04;14.40;99.90
23801;DHT22;12081;48.614;10.226;2022-09-09T18:58:52;14.30;99.90
23801;DHT22;12081;48.614;10.226;2022-09-09T19:01:36;14.10;99.90
23801;DHT22;12081;48.614;10.226;2022-09-09T19:04:23;14.10;99.90
23801;DHT22;12081;48.614;10.226;2022-09-09T19:07:07;14.10;99.90
23801;DHT22;12081;48.614;10.226;2022-09-09T19:09:51;14.10;99.90
23801;DHT22;12081;48.614;10.226;2022-09-09T19:12:34;14.10;99.90
23801;DHT22;12081;48.614;10.226;2022-09-09T19:15:19;14.00;99.90
23801;DHT22;12081;48.614;10.226;2022-09-09T19:18:03;13.90;99.90
23801;DHT22;12081;48.614;10.226;2022-09-09T19:20:47;13.80;99.90
23801;DHT22;12081;48.614;10.226;2022-09-09T19:23:31;13.90;99.90
23801;DHT22;12081;48.614;10.226;2022-09-09T19:26:16;13.50;99.90
23801;DHT22;12081;48.614;10.226;2022-09-09T19:29:00;13.50;99.90
23801;DHT22;12081;48.614;10.226;2022-09-09T19:31:46;13.40;99.90
23801;DHT22;12081;48.614;10.226;2022-09-09T19:34:31;13.30;99.90
23801;DHT22;12081;48.614;10.226;2022-09-09T19:37:15;13.20;99.90
23801;DHT22;12081;48.614;10.226;2022-09-09T19:39:59;13.30;99.90
23801;DHT22;12081;48.614;10.226;2022-09-09T19:42:43;13.10;99.90
23801;DHT22;12081;48.614;10.226;2022-09-09T19:45:27;13.10;99.90
23801;DHT22;12081;48.614;10.226;2022-09-09T19:48:11;13.20;99.90
23801;DHT22;12081;48.614;10.226;2022-09-09T19:51:02;14.10;99.90
23801;DHT22;12081;48.614;10.226;2022-09-09T19:53:53;13.40;99.90
23801;DHT22;12081;48.614;10.226;2022-09-09T19:56:42;13.60;99.90
23801;DHT22;12081;48.614;10.226;2022-09-09T19:59:28;13.70;99.90
23801;DHT22;12081;48.614;10.226;2022-09-09T20:02:12;13.80;99.90
23801;DHT22;12081;48.614;10.226;2022-09-09T20:04:57;13.90;99.90
23801;DHT22;12081;48.614;10.226;2022-09-09T20:07:42;14.00;99.90
23801;DHT22;12081;48.614;10.226;2022-09-09T20:10:26;14.10;99.90
23801;DHT22;12081;48.614;10.226;2022-09-09T20:13:11;14.00;99.90
23801;DHT22;12081;48.614;10.226;2022-09-09T20:15:56;14.90;99.90
23801;DHT22;12081;48.614;10.226;2022-09-09T20:18:43;13.90;99.90
23801;DHT22;12081;48.614;10.226;2022-09-09T20:21:34;13.80;99.90
23801;DHT22;12081;48.614;10.226;2022-09-09T20:24:19;13.80;99.90
23801;DHT22;12081;48.614;10.226;2022-09-09T20:27:04;13.70;99.90
23801;DHT22;12081;48.614;10.226;2022-09-09T20:29:49;13.60;99.90
23801;DHT22;12081;48.614;10.226;2022-09-09T20:32:34;13.60;99.90
23801;DHT22;12081;48.614;10.226;2022-09-09T20:35:18;13.60;99.90
23801;DHT22;12081;48.614;10.226;2022-09-09T20:38:02;13.60;99.90
23801;DHT22;12081;48.614;10.226;2022-09-09T20:40:46;13.60;99.90
23801;DHT22;12081;48.614;10.226;2022-09-09T20:43:31;13.80;99.90
23801;DHT22;12081;48.614;10.226;2022-09-09T20:46:16;13.50;99.90
23801;DHT22;12081;48.614;10.226;2022-09-09T20:49:04;13.50;99.90
23801;DHT22;12081;48.614;10.226;2022-09-09T20:51:49;13.40;99.90
23801;DHT22;12081;48.614;10.226;2022-09-09T20:54:34;13.40;99.90
23801;DHT22;12081;48.614;10.226;2022-09-09T20:57:20;13.40;99.90
23801;DHT22;12081;48.614;10.226;2022-09-09T21:00:06;13.40;99.90
23801;DHT22;12081;48.614;10.226;2022-09-09T21:02:51;13.50;99.90
23801;DHT22;12081;48.614;10.226;2022-09-09T21:05:35;13.50;99.90
23801;DHT22;12081;48.614;10.226;2022-09-09T21:08:21;13.50;99.90
23801;DHT22;12081;48.614;10.226;2022-09-09T21:11:06;13.50;99.90
23801;DHT22;12081;48.614;10.226;2022-09-09T21:13:50;13.50;99.90
23801;DHT22;12081;48.614;10.226;2022-09-09T21:16:34;13.60;99.90
23801;DHT22;12081;48.614;10.226;2022-09-09T21:19:20;13.60;99.90
23801;DHT22;12081;48.614;10.226;2022-09-09T21:22:04;13.60;99.90
23801;DHT22;12081;48.614;10.226;2022-09-09T21:24:48;13.50;99.90
23801;DHT22;12081;48.614;10.226;2022-09-09T21:27:33;13.80;99.90
23801;DHT22;12081;48.614;10.226;2022-09-09T21:30:17;13.90;99.90
23801;DHT22;12081;48.614;10.226;2022-09-09T21:33:03;13.50;99.90
23801;DHT22;12081;48.614;10.226;2022-09-09T21:35:48;13.50;99.90
23801;DHT22;12081;48.614;10.226;2022-09-09T21:38:33;13.50;99.90
23801;DHT22;12081;48.614;10.226;2022-09-09T21:41:17;13.50;99.90
23801;DHT22;12081;48.614;10.226;2022-09-09T21:44:02;13.50;99.90
23801;DHT22;12081;48.614;10.226;2022-09-09T21:46:47;13.40;99.90
23801;DHT22;12081;48.614;10.226;2022-09-09T21:49:31;13.40;99.90
23801;DHT22;12081;48.614;10.226;2022-09-09T21:52:16;13.40;99.90
23801;DHT22;12081;48.614;10.226;2022-09-09T21:55:00;13.30;99.90
23801;DHT22;12081;48.614;10.226;2022-09-09T21:57:44;13.30;99.90
23801;DHT22;12081;48.614;10.226;2022-09-09T22:00:29;13.60;99.90
23801;DHT22;12081;48.614;10.226;2022-09-09T22:03:14;13.10;99.90
23801;DHT22;12081;48.614;10.226;2022-09-09T22:05:58;13.00;99.90
23801;DHT22;12081;48.614;10.226;2022-09-09T22:08:47;13.80;99.90
23801;DHT22;12081;48.614;10.226;2022-09-09T22:11:31;12.90;99.90
23801;DHT22;12081;48.614;10.226;2022-09-09T22:14:16;12.80;99.90
23801;DHT22;12081;48.614;10.226;2022-09-09T22:17:00;12.90;99.90
23801;DHT22;12081;48.614;10.226;2022-09-09T22:19:45;12.90;99.90
23801;DHT22;12081;48.614;10.226;2022-09-09T22:22:29;14.40;99.90
23801;DHT22;12081;48.614;10.226;2022-09-09T22:25:13;13.20;99.90
23801;DHT22;12081;48.614;10.226;2022-09-09T22:27:58;12.90;99.90
23801;DHT22;12081;48.614;10.226;2022-09-09T22:30:42;12.80;99.90
23801;DHT22;12081;48.614;10.226;2022-09-09T22:33:26;12.80;99.90
23801;DHT22;12081;48.614;10.226;2022-09-09T22:36:11;12.60;99.90
23801;DHT22;12081;48.614;10.226;2022-09-09T22:38:55;12.60;99.90
23801;DHT22;12081;48.614;10.226;2022-09-09T22:41:39;12.40;99.90
23801;DHT22;12081;48.614;10.226;2022-09-09T22:44:24;12.40;99.90
23801;DHT22;12081;48.614;10.226;2022-09-09T22:47:09;12.30;99.90
23801;DHT22;12081;48.614;10.226;2022-09-09T22:49:53;12.30;99.90
23801;DHT22;12081;48.614;10.226;2022-09-09T22:52:37;12.40;99.90
23801;DHT22;12081;48.614;10.226;2022-09-09T22:55:21;12.40;99.90
23801;DHT22;12081;48.614;10.226;2022-09-09T22:58:05;12.40;99.90
23801;DHT22;12081;48.614;10.226;2022-09-09T23:00:49;12.40;99.90
23801;DHT22;12081;48.614;10.226;2022-09-09T23:03:35;12.50;99.90